Time;durP1;ratioP1;P1;durP2;ratioP2;P2;SDS_P1;SDS_P2;PMS_P1;PMS_P2;Temp;Humidity;BMP_temperature;BMP_pressure;BME280_temperature;BME280_humidity;BME280_pressure;Samples;Min_cycle;Max_cycle;Signal;HPM_P1;HPM_P2
2023/05/29 00:00:05;;;;;;;;;;;;;;;;;;5067077;28;19921;-57
2023/05/29 00:02:32;;;;;;;;;;;;;;;;;;5068008;28;19928;-57
2023/05/29 00:04:58;;;;;;;;;;;;;;;;;;5071748;28;20277;-57
2023/05/29 00:07:25;;;;;;;;;;;;;;;;;;5071495;28;19925;-57
2023/05/29 00:09:51;;;;;;;;;;;;;;;;;;5053625;28;19928;-57
2023/05/29 00:12:18;;;;;;;;;;;;;;;;;;5052934;28;19921;-57
2023/05/29 00:14:45;;;;;;;;;;;;;;;;;;5052394;28;19920;-57
2023/05/29 00:17:12;;;;;;;;;;;;;;;;;;5053018;28;19928;-58
2023/05/29 00:19:39;;;;;;;;;;;;;;;;;;5056009;28;19920;-58
2023/05/29 00:22:05;;;;;;;;;;;;;;;;;;5055948;28;19935;-58
2023/05/29 00:24:32;;;;;;;;;;;;;;;;;;5056601;28;19921;-58
2023/05/29 00:26:58;;;;;;;;;;;;;;;;;;5056378;28;19927;-58
2023/05/29 00:29:24;;;;;;;;;;;;;;;;;;5056181;28;19925;-58
2023/05/29 00:31:53;;;;;;;;;;;;;;;;;;5056201;28;19921;-58
2023/05/29 00:34:19;;;;;;;;;;;;;;;;;;5056150;28;19928;-58
2023/05/29 00:36:46;;;;;;;;;;;;;;;;;;5056099;28;19921;-58
2023/05/29 00:39:13;;;;;;;;;;;;;;;;;;5071120;28;19920;-58
2023/05/29 00:41:40;;;;;;;;;;;;;;;;;;5075931;28;19920;-58
2023/05/29 00:44:06;;;;;;;;;;;;;;;;;;5068540;28;19928;-57
2023/05/29 00:46:33;;;;;;;;;;;;;;;;;;5056088;28;19928;-58
2023/05/29 00:48:59;;;;;;;;;;;;;;;;;;5069989;28;19927;-58
2023/05/29 00:51:26;;;;;;;;;;;;;;;;;;5075634;28;19927;-58
2023/05/29 00:53:52;;;;;;;;;;;;;;;;;;5072012;28;19920;-57
2023/05/29 00:56:20;;;;;;;;;;;;;;;;;;5075735;28;20269;-58
2023/05/29 00:58:47;;;;;;;;;;;;;;;;;;5075676;28;19921;-58
2023/05/29 01:01:13;;;;;;;;;;;;;;;;;;5075442;28;19921;-58
2023/05/29 01:03:40;;;;;;;;;;;;;;;;;;5062558;28;19921;-58
2023/05/29 01:06:07;;;;;;;;;;;;;;;;;;5055473;28;19928;-58
2023/05/29 01:08:33;;;;;;;;;;;;;;;;;;5055310;28;19920;-58
2023/05/29 01:11:00;;;;;;;;;;;;;;;;;;5055215;28;20278;-58
2023/05/29 01:13:27;;;;;;;;;;;;;;;;;;5068576;28;19921;-58
2023/05/29 01:15:53;;;;;;;;;;;;;;;;;;5074877;28;19920;-58
2023/05/29 01:18:20;;;;;;;;;;;;;;;;;;5068491;28;19920;-58
2023/05/29 01:20:47;;;;;;;;;;;;;;;;;;5055368;28;19928;-58
2023/05/29 01:23:13;;;;;;;;;;;;;;;;;;5057556;28;19943;-58
2023/05/29 01:25:40;;;;;;;;;;;;;;;;;;5073000;28;19920;-58
2023/05/29 01:28:06;;;;;;;;;;;;;;;;;;5075029;28;19927;-58
2023/05/29 01:30:33;;;;;;;;;;;;;;;;;;5073615;28;19920;-58
2023/05/29 01:32:59;;;;;;;;;;;;;;;;;;5074842;28;19920;-58
2023/05/29 01:35:26;;;;;;;;;;;;;;;;;;5074773;28;20289;-58
2023/05/29 01:37:52;;;;;;;;;;;;;;;;;;5071057;28;20385;-58
2023/05/29 01:40:19;;;;;;;;;;;;;;;;;;5074723;28;19928;-58
2023/05/29 01:42:45;;;;;;;;;;;;;;;;;;5074451;28;19922;-58
2023/05/29 01:45:12;;;;;;;;;;;;;;;;;;5058185;28;20357;-57
2023/05/29 01:47:38;;;;;;;;;;;;;;;;;;5054973;28;19920;-58
2023/05/29 01:50:05;;;;;;;;;;;;;;;;;;5054560;28;19921;-58
2023/05/29 01:52:31;;;;;;;;;;;;;;;;;;5059258;28;19924;-58
2023/05/29 01:54:58;;;;;;;;;;;;;;;;;;5074536;28;19927;-58
2023/05/29 01:57:25;;;;;;;;;;;;;;;;;;5074569;28;19920;-58
2023/05/29 01:59:51;;;;;;;;;;;;;;;;;;5072274;28;19928;-58
2023/05/29 02:02:18;;;;;;;;;;;;;;;;;;5066887;28;19950;-58
2023/05/29 02:04:44;;;;;;;;;;;;;;;;;;5054334;28;20294;-58
2023/05/29 02:07:12;;;;;;;;;;;;;;;;;;5058321;28;19927;-58
2023/05/29 02:09:38;;;;;;;;;;;;;;;;;;5070810;28;19927;-58
2023/05/29 02:12:05;;;;;;;;;;;;;;;;;;5054282;28;20374;-58
2023/05/29 02:14:31;;;;;;;;;;;;;;;;;;5053890;28;19921;-58
2023/05/29 02:16:58;;;;;;;;;;;;;;;;;;5053545;28;19928;-58
2023/05/29 02:19:25;;;;;;;;;;;;;;;;;;5054108;28;19931;-58
2023/05/29 02:21:51;;;;;;;;;;;;;;;;;;5054707;28;19921;-59
2023/05/29 02:24:18;;;;;;;;;;;;;;;;;;5072686;28;19920;-59
2023/05/29 02:26:44;;;;;;;;;;;;;;;;;;5073910;28;20289;-59
2023/05/29 02:29:11;;;;;;;;;;;;;;;;;;5073840;28;19921;-59
2023/05/29 02:31:37;;;;;;;;;;;;;;;;;;5069761;28;19927;-59
2023/05/29 02:34:04;;;;;;;;;;;;;;;;;;5070320;28;19920;-59
2023/05/29 02:36:31;;;;;;;;;;;;;;;;;;5073776;28;20364;-59
2023/05/29 02:38:57;;;;;;;;;;;;;;;;;;5067409;28;19920;-59
2023/05/29 02:41:23;;;;;;;;;;;;;;;;;;5073009;28;19928;-58
2023/05/29 02:43:50;;;;;;;;;;;;;;;;;;5068614;28;20285;-59
2023/05/29 02:46:16;;;;;;;;;;;;;;;;;;5054041;28;19927;-59
2023/05/29 02:48:43;;;;;;;;;;;;;;;;;;5053639;28;19925;-59
2023/05/29 02:51:10;;;;;;;;;;;;;;;;;;5053944;28;19921;-59
2023/05/29 02:53:36;;;;;;;;;;;;;;;;;;5055412;28;19921;-59
2023/05/29 02:56:03;;;;;;;;;;;;;;;;;;5053590;28;20281;-59
2023/05/29 02:58:29;;;;;;;;;;;;;;;;;;5053444;28;19921;-59
2023/05/29 03:00:56;;;;;;;;;;;;;;;;;;5053305;28;19928;-59
2023/05/29 03:03:22;;;;;;;;;;;;;;;;;;5059325;28;19925;-59
2023/05/29 03:05:49;;;;;;;;;;;;;;;;;;5072237;28;19920;-59
2023/05/29 03:08:15;;;;;;;;;;;;;;;;;;5064958;28;19920;-59
2023/05/29 03:10:42;;;;;;;;;;;;;;;;;;5053229;28;19927;-59
2023/05/29 03:13:10;;;;;;;;;;;;;;;;;;5053006;28;19921;-59
2023/05/29 03:15:36;;;;;;;;;;;;;;;;;;5052882;28;19929;-59
2023/05/29 03:18:03;;;;;;;;;;;;;;;;;;5052931;28;20381;-59
2023/05/29 03:20:29;;;;;;;;;;;;;;;;;;5052814;28;19920;-58
2023/05/29 03:22:56;;;;;;;;;;;;;;;;;;5056919;28;19920;-59
2023/05/29 03:25:22;;;;;;;;;;;;;;;;;;5071948;28;19924;-59
2023/05/29 03:27:49;;;;;;;;;;;;;;;;;;5073236;28;19927;-59
2023/05/29 03:30:15;;;;;;;;;;;;;;;;;;5073148;28;19920;-58
2023/05/29 03:32:42;;;;;;;;;;;;;;;;;;5073211;28;19920;-58
2023/05/29 03:35:08;;;;;;;;;;;;;;;;;;5072576;28;19920;-58
2023/05/29 03:37:35;;;;;;;;;;;;;;;;;;5070847;28;20365;-58
2023/05/29 03:40:01;;;;;;;;;;;;;;;;;;5071995;28;19920;-58
2023/05/29 03:42:30;;;;;;;;;;;;;;;;;;5073254;28;19920;-58
2023/05/29 03:44:57;;;;;;;;;;;;;;;;;;5058766;28;19944;-58
2023/05/29 03:47:23;;;;;;;;;;;;;;;;;;5054814;28;19925;-58
2023/05/29 03:49:50;;;;;;;;;;;;;;;;;;5057485;28;20384;-58
2023/05/29 03:52:16;;;;;;;;;;;;;;;;;;5062309;28;20396;-59
2023/05/29 03:54:44;;;;;;;;;;;;;;;;;;5065283;28;19940;-58
2023/05/29 03:57:11;;;;;;;;;;;;;;;;;;5069016;28;19920;-59
2023/05/29 03:59:37;;;;;;;;;;;;;;;;;;5076305;28;19920;-58
2023/05/29 04:02:04;;;;;;;;;;;;;;;;;;5076200;28;19924;-58
2023/05/29 04:04:30;;;;;;;;;;;;;;;;;;5076170;28;19920;-59
2023/05/29 04:06:57;;;;;;;;;;;;;;;;;;5073279;28;20301;-58
2023/05/29 04:09:24;;;;;;;;;;;;;;;;;;5076266;28;19924;-59
2023/05/29 04:11:51;;;;;;;;;;;;;;;;;;5076536;28;19920;-59
2023/05/29 04:14:18;;;;;;;;;;;;;;;;;;5075824;28;19920;-59
2023/05/29 04:16:44;;;;;;;;;;;;;;;;;;5067863;28;19921;-59
2023/05/29 04:19:11;;;;;;;;;;;;;;;;;;5055899;28;20292;-59
2023/05/29 04:21:38;;;;;;;;;;;;;;;;;;5056385;28;20317;-58
2023/05/29 04:24:05;;;;;;;;;;;;;;;;;;5072044;28;19928;-58
2023/05/29 04:26:32;;;;;;;;;;;;;;;;;;5076116;28;20365;-58
2023/05/29 04:28:59;;;;;;;;;;;;;;;;;;5075811;28;19920;-58
2023/05/29 04:31:26;;;;;;;;;;;;;;;;;;5068947;28;19932;-59
2023/05/29 04:33:54;;;;;;;;;;;;;;;;;;5075953;28;19920;-58
2023/05/29 04:36:20;;;;;;;;;;;;;;;;;;5061614;28;19920;-58
2023/05/29 04:38:47;;;;;;;;;;;;;;;;;;5056525;28;19921;-60
2023/05/29 04:41:14;;;;;;;;;;;;;;;;;;5072844;28;19925;-58
2023/05/29 04:43:40;;;;;;;;;;;;;;;;;;5075461;28;19921;-60
2023/05/29 04:46:07;;;;;;;;;;;;;;;;;;5075850;28;19920;-58
2023/05/29 04:48:33;;;;;;;;;;;;;;;;;;5074879;28;20323;-59
2023/05/29 04:51:00;;;;;;;;;;;;;;;;;;5075706;28;19920;-58
2023/05/29 04:53:26;;;;;;;;;;;;;;;;;;5080530;23;20279;-80
2023/05/29 04:55:53;;;;;;;;;;;;;;;;;;5055660;28;19943;-80
2023/05/29 04:58:19;;;;;;;;;;;;;;;;;;5056202;28;19925;-79
2023/05/29 05:00:47;;;;;;;;;;;;;;;;;;5055350;28;19943;-80
2023/05/29 05:03:16;;;;;;;;;;;;;;;;;;5054926;28;19928;-80
2023/05/29 05:05:43;;;;;;;;;;;;;;;;;;5055828;28;19943;-80
2023/05/29 05:08:11;;;;;;;;;;;;;;;;;;5048840;28;19930;-78
2023/05/29 05:10:38;;;;;;;;;;;;;;;;;;5042321;28;19921;-80
2023/05/29 05:13:07;;;;;;;;;;;;;;;;;;5054883;28;20293;-80
2023/05/29 05:15:33;;;;;;;;;;;;;;;;;;5055570;28;19921;-79
2023/05/29 05:18:00;;;;;;;;;;;;;;;;;;5055412;28;20396;-80
2023/05/29 05:20:26;;;;;;;;;;;;;;;;;;5055521;28;19920;-79
2023/05/29 05:22:53;;;;;;;;;;;;;;;;;;5052548;28;20358;-80
2023/05/29 05:25:19;;;;;;;;;;;;;;;;;;5055208;28;19921;-80
2023/05/29 05:27:46;;;;;;;;;;;;;;;;;;5054971;28;19920;-80
2023/05/29 05:30:12;;;;;;;;;;;;;;;;;;5054943;28;19921;-79
2023/05/29 05:32:39;;;;;;;;;;;;;;;;;;5054881;28;19920;-80
2023/05/29 05:35:05;;;;;;;;;;;;;;;;;;5055000;28;19921;-80
2023/05/29 05:37:32;;;;;;;;;;;;;;;;;;5053954;28;20329;-79
2023/05/29 05:40:00;;;;;;;;;;;;;;;;;;5054898;28;20297;-80
2023/05/29 05:42:26;;;;;;;;;;;;;;;;;;5054849;28;19928;-80
2023/05/29 05:44:53;;;;;;;;;;;;;;;;;;5054499;28;19920;-80
2023/05/29 05:47:19;;;;;;;;;;;;;;;;;;5054630;28;20381;-80
2023/05/29 05:49:46;;;;;;;;;;;;;;;;;;5054680;28;19943;-79
2023/05/29 05:52:12;;;;;;;;;;;;;;;;;;5053647;28;19920;-79
2023/05/29 05:54:39;;;;;;;;;;;;;;;;;;5053468;28;20306;-79
2023/05/29 05:57:07;;;;;;;;;;;;;;;;;;5054797;28;19927;-79
2023/05/29 05:59:33;;;;;;;;;;;;;;;;;;5053327;28;19920;-80
2023/05/29 06:02:00;;;;;;;;;;;;;;;;;;5054190;28;19927;-79
2023/05/29 06:04:26;;;;;;;;;;;;;;;;;;5053198;28;19979;-79
2023/05/29 06:06:53;;;;;;;;;;;;;;;;;;5053125;28;19928;-79
2023/05/29 06:09:20;;;;;;;;;;;;;;;;;;5050440;28;19924;-80
2023/05/29 06:11:46;;;;;;;;;;;;;;;;;;5053255;28;19920;-79
2023/05/29 06:14:12;;;;;;;;;;;;;;;;;;5055057;28;19921;-79
2023/05/29 06:16:39;;;;;;;;;;;;;;;;;;5050824;28;19927;-78
2023/05/29 06:19:05;;;;;;;;;;;;;;;;;;5051411;28;19921;-80
2023/05/29 06:21:32;;;;;;;;;;;;;;;;;;5053162;28;19920;-79
2023/05/29 06:23:59;;;;;;;;;;;;;;;;;;5052143;28;19969;-79
2023/05/29 06:26:26;;;;;;;;;;;;;;;;;;5052766;28;19931;-80
2023/05/29 06:28:52;;;;;;;;;;;;;;;;;;5050049;28;19940;-78
2023/05/29 06:31:19;;;;;;;;;;;;;;;;;;5052656;28;19927;-80
2023/05/29 06:33:46;;;;;;;;;;;;;;;;;;5054212;28;19943;-74
2023/05/29 06:36:13;;;;;;;;;;;;;;;;;;5052362;28;19921;-74
2023/05/29 06:38:39;;;;;;;;;;;;;;;;;;5052130;28;19921;-79
2023/05/29 06:41:06;;;;;;;;;;;;;;;;;;5053084;28;19920;-80
2023/05/29 06:43:33;;;;;;;;;;;;;;;;;;5050987;28;19921;-79
2023/05/29 06:46:00;;;;;;;;;;;;;;;;;;5034114;28;19921;-79
2023/05/29 06:48:26;;;;;;;;;;;;;;;;;;5033895;28;19928;-80
2023/05/29 06:50:53;;;;;;;;;;;;;;;;;;5033968;28;20294;-80
2023/05/29 06:53:19;;;;;;;;;;;;;;;;;;5044856;28;19920;-80
2023/05/29 06:55:45;;;;;;;;;;;;;;;;;;5053304;28;20354;-73
2023/05/29 06:58:12;;;;;;;;;;;;;;;;;;5053510;28;20365;-74
2023/05/29 07:00:38;;;;;;;;;;;;;;;;;;5053311;28;19948;-74
2023/05/29 07:03:05;;;;;;;;;;;;;;;;;;5049578;28;19928;-74
2023/05/29 07:05:31;;;;;;;;;;;;;;;;;;5047570;28;20384;-74
2023/05/29 07:07:58;;;;;;;;;;;;;;;;;;5052481;28;19921;-74
2023/05/29 07:10:24;;;;;;;;;;;;;;;;;;5050473;28;19921;-74
2023/05/29 07:12:51;;;;;;;;;;;;;;;;;;5053282;28;19920;-74
2023/05/29 07:15:17;;;;;;;;;;;;;;;;;;5051836;28;19936;-74
2023/05/29 07:17:44;;;;;;;;;;;;;;;;;;5053215;28;19999;-80
2023/05/29 07:20:10;;;;;;;;;;;;;;;;;;5053245;28;19921;-80
2023/05/29 07:22:37;;;;;;;;;;;;;;;;;;5051032;28;19928;-78
2023/05/29 07:25:03;;;;;;;;;;;;;;;;;;5053067;28;19925;-80
2023/05/29 07:27:30;;;;;;;;;;;;;;;;;;5055478;28;19928;-74
2023/05/29 07:29:56;;;;;;;;;;;;;;;;;;5057079;28;19928;-74
2023/05/29 07:32:23;;;;;;;;;;;;;;;;;;5056967;28;19925;-73
2023/05/29 07:34:50;;;;;;;;;;;;;;;;;;5056269;28;20024;-74
2023/05/29 07:37:18;;;;;;;;;;;;;;;;;;5056610;28;19927;-74
2023/05/29 07:39:45;;;;;;;;;;;;;;;;;;5055158;28;20408;-74
2023/05/29 07:42:11;;;;;;;;;;;;;;;;;;5057218;28;20302;-73
2023/05/29 07:44:38;;;;;;;;;;;;;;;;;;5056758;28;20386;-73
2023/05/29 07:47:05;;;;;;;;;;;;;;;;;;5056989;28;19944;-74
2023/05/29 07:49:31;;;;;;;;;;;;;;;;;;5056944;28;19920;-74
2023/05/29 07:51:58;;;;;;;;;;;;;;;;;;5056674;28;19921;-74
2023/05/29 07:54:24;;;;;;;;;;;;;;;;;;5052822;28;19921;-73
2023/05/29 07:56:51;;;;;;;;;;;;;;;;;;5055857;28;19921;-74
2023/05/29 07:59:17;;;;;;;;;;;;;;;;;;5057102;28;19921;-74
2023/05/29 08:01:44;;;;;;;;;;;;;;;;;;5056717;28;19928;-74
2023/05/29 08:04:10;;;;;;;;;;;;;;;;;;5056843;28;19928;-74
2023/05/29 08:06:37;;;;;;;;;;;;;;;;;;5056779;28;19921;-74
2023/05/29 08:09:04;;;;;;;;;;;;;;;;;;5054595;28;19921;-74
2023/05/29 08:11:31;;;;;;;;;;;;;;;;;;5056279;28;20297;-74
2023/05/29 08:13:57;;;;;;;;;;;;;;;;;;5051576;28;19928;-75
2023/05/29 08:16:24;;;;;;;;;;;;;;;;;;5036247;28;19928;-74
2023/05/29 08:18:50;;;;;;;;;;;;;;;;;;5036674;28;19921;-75
2023/05/29 08:21:17;;;;;;;;;;;;;;;;;;5036521;28;19920;-74
2023/05/29 08:23:43;;;;;;;;;;;;;;;;;;5042842;28;19921;-74
2023/05/29 08:26:10;;;;;;;;;;;;;;;;;;5055953;28;19921;-72
2023/05/29 08:28:36;;;;;;;;;;;;;;;;;;5056264;28;19920;-74
2023/05/29 08:31:03;;;;;;;;;;;;;;;;;;5056305;28;19932;-74
2023/05/29 08:33:30;;;;;;;;;;;;;;;;;;5056172;28;19928;-75
2023/05/29 08:35:56;;;;;;;;;;;;;;;;;;5053762;28;20297;-79
2023/05/29 08:38:25;;;;;;;;;;;;;;;;;;5054759;28;19929;-79
2023/05/29 08:40:51;;;;;;;;;;;;;;;;;;5055955;28;19968;-79
2023/05/29 08:43:18;;;;;;;;;;;;;;;;;;5055919;28;19921;-79
2023/05/29 08:45:45;;;;;;;;;;;;;;;;;;5055688;28;19924;-80
2023/05/29 08:48:11;;;;;;;;;;;;;;;;;;5056135;28;20293;-79
2023/05/29 08:50:43;;;;;;;;;;;;;;;;;;5055872;28;19921;-79
2023/05/29 08:53:10;;;;;;;;;;;;;;;;;;5054382;28;19932;-78
2023/05/29 08:55:36;;;;;;;;;;;;;;;;;;5055545;28;19928;-79
2023/05/29 08:58:03;;;;;;;;;;;;;;;;;;5055616;28;19925;-79
2023/05/29 09:00:30;;;;;;;;;;;;;;;;;;5055316;28;19921;-80
2023/05/29 09:02:56;;;;;;;;;;;;;;;;;;5055562;28;19928;-80
2023/05/29 09:05:22;;;;;;;;;;;;;;;;;;5055433;28;19925;-80
2023/05/29 09:07:50;;;;;;;;;;;;;;;;;;5054972;28;19921;-80
2023/05/29 09:10:17;;;;;;;;;;;;;;;;;;5055089;28;19922;-80
2023/05/29 09:12:44;;;;;;;;;;;;;;;;;;5055653;28;19958;-80
2023/05/29 09:15:11;;;;;;;;;;;;;;;;;;5055707;28;20377;-80
2023/05/29 09:17:37;;;;;;;;;;;;;;;;;;5055406;28;19921;-78
2023/05/29 09:20:07;;;;;;;;;;;;;;;;;;5052592;28;20480;-79
2023/05/29 09:22:33;;;;;;;;;;;;;;;;;;5054969;28;19927;-79
2023/05/29 09:25:00;;;;;;;;;;;;;;;;;;5053898;28;20377;-79
2023/05/29 09:27:27;;;;;;;;;;;;;;;;;;5054839;28;19928;-79
2023/05/29 09:29:53;;;;;;;;;;;;;;;;;;5055217;28;19940;-79
2023/05/29 09:32:20;;;;;;;;;;;;;;;;;;5053716;28;19920;-78
2023/05/29 09:34:46;;;;;;;;;;;;;;;;;;5053980;28;19921;-79
2023/05/29 09:37:13;;;;;;;;;;;;;;;;;;5054569;28;19932;-79
2023/05/29 09:39:39;;;;;;;;;;;;;;;;;;5053529;28;19920;-79
2023/05/29 09:42:06;;;;;;;;;;;;;;;;;;5054569;28;19921;-79
2023/05/29 09:44:33;;;;;;;;;;;;;;;;;;5054605;28;19931;-79
2023/05/29 09:46:59;;;;;;;;;;;;;;;;;;5054899;28;19928;-79
2023/05/29 09:49:26;;;;;;;;;;;;;;;;;;5054683;28;19933;-78
2023/05/29 09:51:53;;;;;;;;;;;;;;;;;;5053512;28;20286;-78
2023/05/29 09:54:20;;;;;;;;;;;;;;;;;;5052585;28;20327;-79
2023/05/29 09:56:47;;;;;;;;;;;;;;;;;;5054419;28;19921;-79
2023/05/29 09:59:13;;;;;;;;;;;;;;;;;;5055137;28;20285;-78
2023/05/29 10:01:40;;;;;;;;;;;;;;;;;;5054454;28;19928;-79
2023/05/29 10:04:06;;;;;;;;;;;;;;;;;;5055059;28;19921;-79
2023/05/29 10:06:33;;;;;;;;;;;;;;;;;;5054221;28;19928;-79
2023/05/29 10:09:00;;;;;;;;;;;;;;;;;;5052870;28;20376;-80
2023/05/29 10:11:27;;;;;;;;;;;;;;;;;;5053938;28;19927;-79
2023/05/29 10:13:53;;;;;;;;;;;;;;;;;;5054541;28;20259;-79
2023/05/29 10:16:20;;;;;;;;;;;;;;;;;;5054332;28;19943;-79
2023/05/29 10:18:49;;;;;;;;;;;;;;;;;;5054529;28;20285;-79
2023/05/29 10:21:15;;;;;;;;;;;;;;;;;;5054125;28;19921;-79
2023/05/29 10:23:42;;;;;;;;;;;;;;;;;;5051941;28;19920;-79
2023/05/29 10:26:08;;;;;;;;;;;;;;;;;;5053871;28;19921;-79
2023/05/29 10:28:35;;;;;;;;;;;;;;;;;;5052264;28;19921;-79
2023/05/29 10:31:01;;;;;;;;;;;;;;;;;;5054081;28;19920;-79
2023/05/29 10:33:28;;;;;;;;;;;;;;;;;;5054004;28;19920;-79
2023/05/29 10:35:54;;;;;;;;;;;;;;;;;;5054054;28;19925;-79
2023/05/29 10:38:21;;;;;;;;;;;;;;;;;;5052229;28;20362;-80
2023/05/29 10:40:47;;;;;;;;;;;;;;;;;;5053683;28;19943;-79
2023/05/29 10:43:14;;;;;;;;;;;;;;;;;;5053821;28;20293;-78
2023/05/29 10:45:40;;;;;;;;;;;;;;;;;;5054466;28;19927;-79
2023/05/29 10:48:07;;;;;;;;;;;;;;;;;;5052451;28;19921;-78
2023/05/29 10:50:33;;;;;;;;;;;;;;;;;;5053334;28;19944;-79
2023/05/29 10:53:00;;;;;;;;;;;;;;;;;;5051094;28;19928;-78
2023/05/29 10:55:26;;;;;;;;;;;;;;;;;;5052575;28;19928;-78
2023/05/29 10:57:53;;;;;;;;;;;;;;;;;;5053610;28;19921;-78
2023/05/29 11:00:20;;;;;;;;;;;;;;;;;;5053441;28;19921;-78
2023/05/29 11:02:47;;;;;;;;;;;;;;;;;;5053202;28;20384;-79
2023/05/29 11:05:13;;;;;;;;;;;;;;;;;;5053460;28;19921;-78
2023/05/29 11:07:40;;;;;;;;;;;;;;;;;;5051697;28;19920;-78
2023/05/29 11:10:07;;;;;;;;;;;;;;;;;;5053465;28;19928;-79
2023/05/29 11:12:35;;;;;;;;;;;;;;;;;;5053346;28;19921;-79
2023/05/29 11:15:02;;;;;;;;;;;;;;;;;;5055079;28;19927;-78
2023/05/29 11:17:28;;;;;;;;;;;;;;;;;;5055768;28;19921;-78
2023/05/29 11:19:55;;;;;;;;;;;;;;;;;;5053419;28;20293;-79
2023/05/29 11:22:21;;;;;;;;;;;;;;;;;;5051514;28;19935;-77
2023/05/29 11:24:48;;;;;;;;;;;;;;;;;;5053220;28;19920;-79
2023/05/29 11:27:14;;;;;;;;;;;;;;;;;;5051566;28;19920;-78
2023/05/29 11:29:40;;;;;;;;;;;;;;;;;;5052365;28;19920;-79
2023/05/29 11:32:07;;;;;;;;;;;;;;;;;;5053133;28;20297;-78
2023/05/29 11:34:34;;;;;;;;;;;;;;;;;;5054011;28;20354;-78
2023/05/29 11:37:00;;;;;;;;;;;;;;;;;;5052902;28;19921;-78
2023/05/29 11:39:27;;;;;;;;;;;;;;;;;;5051502;28;19921;-78
2023/05/29 11:41:53;;;;;;;;;;;;;;;;;;5053209;28;19927;-78
2023/05/29 11:44:20;;;;;;;;;;;;;;;;;;5053528;28;19927;-79
2023/05/29 11:46:46;;;;;;;;;;;;;;;;;;5052432;28;19924;-74
2023/05/29 11:49:13;;;;;;;;;;;;;;;;;;5053403;28;19920;-74
2023/05/29 11:51:39;;;;;;;;;;;;;;;;;;5053116;28;19928;-74
2023/05/29 11:54:06;;;;;;;;;;;;;;;;;;5051035;28;19924;-74
2023/05/29 11:56:33;;;;;;;;;;;;;;;;;;5052934;28;19927;-74
2023/05/29 11:58:59;;;;;;;;;;;;;;;;;;5052988;28;19921;-73
2023/05/29 12:01:26;;;;;;;;;;;;;;;;;;5052865;28;19924;-74
2023/05/29 12:03:53;;;;;;;;;;;;;;;;;;5052943;28;20285;-74
2023/05/29 12:06:19;;;;;;;;;;;;;;;;;;5051925;28;19920;-74
2023/05/29 12:08:48;;;;;;;;;;;;;;;;;;5053458;28;19928;-79
2023/05/29 12:11:14;;;;;;;;;;;;;;;;;;5053271;28;19928;-80
2023/05/29 12:13:41;;;;;;;;;;;;;;;;;;5053538;28;19925;-79
2023/05/29 12:16:08;;;;;;;;;;;;;;;;;;5056991;28;19928;-79
2023/05/29 12:18:34;;;;;;;;;;;;;;;;;;5052547;28;19927;-78
2023/05/29 12:21:04;;;;;;;;;;;;;;;;;;5050434;28;19921;-79
2023/05/29 12:23:31;;;;;;;;;;;;;;;;;;5049389;28;19921;-80
2023/05/29 12:25:57;;;;;;;;;;;;;;;;;;5052237;28;20381;-79
2023/05/29 12:28:24;;;;;;;;;;;;;;;;;;5054030;28;19921;-78
2023/05/29 12:30:51;;;;;;;;;;;;;;;;;;5055078;28;19921;-78
2023/05/29 12:33:17;;;;;;;;;;;;;;;;;;5055523;28;20384;-79
2023/05/29 12:35:44;;;;;;;;;;;;;;;;;;5055448;28;20294;-78
2023/05/29 12:38:10;;;;;;;;;;;;;;;;;;5051253;28;19920;-78
2023/05/29 12:40:38;;;;;;;;;;;;;;;;;;5053461;28;19936;-79
2023/05/29 12:43:04;;;;;;;;;;;;;;;;;;5055781;28;19920;-78
2023/05/29 12:45:31;;;;;;;;;;;;;;;;;;5053652;28;20035;-78
2023/05/29 12:47:57;;;;;;;;;;;;;;;;;;5055949;28;19920;-78
2023/05/29 12:50:24;;;;;;;;;;;;;;;;;;5055724;28;19921;-78
2023/05/29 12:52:50;;;;;;;;;;;;;;;;;;5051576;28;19943;-77
2023/05/29 12:55:17;;;;;;;;;;;;;;;;;;5055551;28;19921;-78
2023/05/29 12:57:45;;;;;;;;;;;;;;;;;;5055447;28;19920;-79
2023/05/29 13:00:12;;;;;;;;;;;;;;;;;;5056266;28;19928;-80
2023/05/29 13:02:38;;;;;;;;;;;;;;;;;;5054091;28;20349;-78
2023/05/29 13:05:08;;;;;;;;;;;;;;;;;;5054664;28;20382;-79
2023/05/29 13:07:35;;;;;;;;;;;;;;;;;;5054663;28;19928;-80
2023/05/29 13:10:01;;;;;;;;;;;;;;;;;;5050650;28;19921;-80
2023/05/29 13:12:31;;;;;;;;;;;;;;;;;;5053161;28;19929;-79
2023/05/29 13:14:57;;;;;;;;;;;;;;;;;;5054398;28;20328;-79
2023/05/29 13:17:24;;;;;;;;;;;;;;;;;;5054399;28;19920;-79
2023/05/29 13:19:50;;;;;;;;;;;;;;;;;;5052537;28;20006;-79
2023/05/29 13:22:17;;;;;;;;;;;;;;;;;;5053790;28;19920;-79
2023/05/29 13:24:43;;;;;;;;;;;;;;;;;;5053624;28;19944;-79
2023/05/29 13:27:10;;;;;;;;;;;;;;;;;;5049145;28;19920;-79
2023/05/29 13:29:36;;;;;;;;;;;;;;;;;;5053659;28;19924;-79
2023/05/29 13:32:03;;;;;;;;;;;;;;;;;;5050280;28;19921;-79
2023/05/29 13:34:29;;;;;;;;;;;;;;;;;;5045794;28;19928;-79
2023/05/29 13:36:56;;;;;;;;;;;;;;;;;;5052621;28;20421;-80
2023/05/29 13:39:22;;;;;;;;;;;;;;;;;;5053738;28;19921;-79
2023/05/29 13:41:49;;;;;;;;;;;;;;;;;;5051643;28;19920;-78
2023/05/29 13:44:18;;;;;;;;;;;;;;;;;;5042356;28;19921;-79
2023/05/29 13:46:45;;;;;;;;;;;;;;;;;;5048234;28;19921;-78
2023/05/29 13:49:11;;;;;;;;;;;;;;;;;;5046971;28;19920;-78
2023/05/29 13:51:38;;;;;;;;;;;;;;;;;;5045771;28;19984;-78
2023/05/29 13:54:05;;;;;;;;;;;;;;;;;;5044858;28;20301;-79
2023/05/29 13:56:31;;;;;;;;;;;;;;;;;;5053122;28;19928;-80
2023/05/29 13:58:59;;;;;;;;;;;;;;;;;;5051444;28;20385;-79
2023/05/29 14:01:25;;;;;;;;;;;;;;;;;;5050036;28;19931;-78
2023/05/29 14:03:52;;;;;;;;;;;;;;;;;;5048846;28;20327;-79
2023/05/29 14:06:18;;;;;;;;;;;;;;;;;;5047189;28;19945;-80
2023/05/29 14:08:46;;;;;;;;;;;;;;;;;;5046666;28;20293;-79
2023/05/29 14:11:12;;;;;;;;;;;;;;;;;;5051736;28;19920;-80
2023/05/29 14:13:39;;;;;;;;;;;;;;;;;;5051633;28;20285;-80
2023/05/29 14:16:05;;;;;;;;;;;;;;;;;;5051205;28;19928;-80
2023/05/29 14:18:32;;;;;;;;;;;;;;;;;;5049429;28;19921;-80
2023/05/29 14:20:58;;;;;;;;;;;;;;;;;;5050815;28;20370;-81
2023/05/29 14:23:25;;;;;;;;;;;;;;;;;;5044380;28;20303;-80
2023/05/29 14:25:52;;;;;;;;;;;;;;;;;;5048901;28;19920;-81
2023/05/29 14:28:19;;;;;;;;;;;;;;;;;;5051680;28;19921;-81
2023/05/29 14:30:45;;;;;;;;;;;;;;;;;;5051339;28;19921;-80
2023/05/29 14:33:12;;;;;;;;;;;;;;;;;;5050888;28;20386;-81
2023/05/29 14:35:38;;;;;;;;;;;;;;;;;;5044094;28;19925;-79
2023/05/29 14:38:05;;;;;;;;;;;;;;;;;;5047093;28;19927;-80
2023/05/29 14:40:33;;;;;;;;;;;;;;;;;;5053141;28;19920;-80
2023/05/29 14:43:00;;;;;;;;;;;;;;;;;;5049416;28;20313;-78
2023/05/29 14:45:26;;;;;;;;;;;;;;;;;;5048707;28;19921;-80
2023/05/29 14:47:53;;;;;;;;;;;;;;;;;;5050493;28;20003;-79
2023/05/29 14:50:20;;;;;;;;;;;;;;;;;;5052273;28;19921;-79
2023/05/29 14:52:47;;;;;;;;;;;;;;;;;;5051710;28;20285;-82
2023/05/29 14:55:14;;;;;;;;;;;;;;;;;;5053439;28;19927;-82
2023/05/29 14:57:41;;;;;;;;;;;;;;;;;;5053449;28;19921;-82
2023/05/29 15:00:07;;;;;;;;;;;;;;;;;;5053928;28;19920;-81
2023/05/29 15:02:34;;;;;;;;;;;;;;;;;;5053708;28;19920;-81
2023/05/29 15:05:00;;;;;;;;;;;;;;;;;;5053621;28;19928;-79
2023/05/29 15:07:27;;;;;;;;;;;;;;;;;;5052918;28;19921;-82
2023/05/29 15:09:53;;;;;;;;;;;;;;;;;;5052579;28;19927;-82
2023/05/29 15:12:20;;;;;;;;;;;;;;;;;;5051109;28;19921;-81
2023/05/29 15:14:46;;;;;;;;;;;;;;;;;;5054285;28;19921;-80
2023/05/29 15:17:13;;;;;;;;;;;;;;;;;;5053184;28;19921;-79
2023/05/29 15:19:39;;;;;;;;;;;;;;;;;;5050477;28;19921;-80
2023/05/29 15:22:06;;;;;;;;;;;;;;;;;;5050131;28;20382;-79
2023/05/29 15:24:32;;;;;;;;;;;;;;;;;;5054962;28;19928;-79
2023/05/29 15:26:59;;;;;;;;;;;;;;;;;;5051985;28;19947;-79
2023/05/29 15:29:26;;;;;;;;;;;;;;;;;;5052344;28;19924;-81
2023/05/29 15:31:52;;;;;;;;;;;;;;;;;;5046572;28;19936;-79
2023/05/29 15:34:19;;;;;;;;;;;;;;;;;;5052533;28;19925;-79
2023/05/29 15:36:45;;;;;;;;;;;;;;;;;;5045855;28;19921;-79
2023/05/29 15:39:12;;;;;;;;;;;;;;;;;;5052883;28;20366;-79
2023/05/29 15:41:38;;;;;;;;;;;;;;;;;;5053125;28;19928;-79
2023/05/29 15:44:05;;;;;;;;;;;;;;;;;;5052763;28;19943;-78
2023/05/29 15:46:31;;;;;;;;;;;;;;;;;;5053032;28;20285;-80
2023/05/29 15:48:58;;;;;;;;;;;;;;;;;;5055003;28;19924;-79
2023/05/29 15:51:24;;;;;;;;;;;;;;;;;;5054539;28;19920;-80
2023/05/29 15:53:51;;;;;;;;;;;;;;;;;;5055975;28;20377;-79
2023/05/29 15:56:17;;;;;;;;;;;;;;;;;;5056273;28;20038;-79
2023/05/29 15:58:44;;;;;;;;;;;;;;;;;;5057152;28;19920;-79
2023/05/29 16:01:11;;;;;;;;;;;;;;;;;;5056545;28;19921;-79
2023/05/29 16:03:37;;;;;;;;;;;;;;;;;;5056575;28;19924;-79
2023/05/29 16:06:04;;;;;;;;;;;;;;;;;;5055194;28;19920;-80
2023/05/29 16:08:30;;;;;;;;;;;;;;;;;;5056442;28;19928;-79
2023/05/29 16:10:58;;;;;;;;;;;;;;;;;;5056437;28;19925;-80
2023/05/29 16:13:24;;;;;;;;;;;;;;;;;;5056723;28;19920;-80
2023/05/29 16:15:51;;;;;;;;;;;;;;;;;;5036430;28;20298;-79
2023/05/29 16:18:17;;;;;;;;;;;;;;;;;;5054253;28;20384;-79
2023/05/29 16:20:44;;;;;;;;;;;;;;;;;;5055422;28;19927;-79
2023/05/29 16:23:11;;;;;;;;;;;;;;;;;;5055643;28;20290;-79
2023/05/29 16:25:38;;;;;;;;;;;;;;;;;;5056084;28;19924;-79
2023/05/29 16:28:04;;;;;;;;;;;;;;;;;;5054829;28;20250;-80
2023/05/29 16:30:31;;;;;;;;;;;;;;;;;;5056084;28;20278;-81
2023/05/29 16:32:57;;;;;;;;;;;;;;;;;;5052108;28;19925;-80
2023/05/29 16:35:24;;;;;;;;;;;;;;;;;;5052873;28;19928;-80
2023/05/29 16:37:52;;;;;;;;;;;;;;;;;;5051682;28;19931;-80
2023/05/29 16:40:19;;;;;;;;;;;;;;;;;;5049927;28;19921;-80